Time;durP1;ratioP1;P1;durP2;ratioP2;P2;SDS_P1;SDS_P2;PMS_P1;PMS_P2;Temp;Humidity;BMP_temperature;BMP_pressure;BME280_temperature;BME280_humidity;BME280_pressure;Samples;Min_cycle;Max_cycle;Signal;HPM_P1;HPM_P2
2023/11/18 00:01:21;;;;;;;3.15;2.30;;;11.20;99.90;;;;;;5012642;28;20224;-41
2023/11/18 00:03:47;;;;;;;5.22;1.90;;;11.20;99.90;;;;;;5012363;28;20025;-43
2023/11/18 00:06:12;;;;;;;3.40;2.25;;;11.10;99.90;;;;;;5013018;28;20014;-44
2023/11/18 00:08:38;;;;;;;2.83;2.00;;;11.10;99.90;;;;;;5012552;28;20371;-44
2023/11/18 00:11:04;;;;;;;2.65;1.77;;;11.10;99.90;;;;;;5011778;28;20030;-45
2023/11/18 00:13:30;;;;;;;2.38;1.70;;;11.10;99.90;;;;;;5012595;28;20104;-40
2023/11/18 00:15:55;;;;;;;2.70;1.80;;;11.10;99.90;;;;;;5012742;28;20029;-40
2023/11/18 00:18:21;;;;;;;2.75;1.63;;;11.10;99.90;;;;;;5011312;28;20080;-45
2023/11/18 00:20:47;;;;;;;2.40;1.60;;;11.10;99.90;;;;;;5012826;28;20022;-44
2023/11/18 00:23:12;;;;;;;2.13;1.58;;;11.10;99.90;;;;;;5012577;28;20018;-45
2023/11/18 00:25:39;;;;;;;2.10;1.30;;;11.10;99.90;;;;;;5011343;28;20104;-44
2023/11/18 00:28:07;;;;;;;2.47;1.52;;;11.10;99.90;;;;;;5012579;28;20026;-43
2023/11/18 00:30:33;;;;;;;3.90;1.27;;;11.10;99.90;;;;;;5010220;28;20117;-43
2023/11/18 00:32:58;;;;;;;2.33;1.60;;;11.10;99.90;;;;;;5012255;28;20044;-45
2023/11/18 00:35:24;;;;;;;1.90;1.20;;;11.10;99.90;;;;;;5012698;28;20491;-45
2023/11/18 00:37:50;;;;;;;2.67;1.60;;;11.10;99.90;;;;;;5011093;28;20030;-45
2023/11/18 00:40:17;;;;;;;5.63;1.77;;;11.10;99.90;;;;;;5012570;28;20037;-45
2023/11/18 00:42:45;;;;;;;2.50;1.55;;;11.10;99.90;;;;;;5011308;28;20092;-42
2023/11/18 00:45:12;;;;;;;2.72;1.58;;;11.10;99.90;;;;;;5011371;28;20018;-45
2023/11/18 00:47:41;;;;;;;2.40;1.83;;;11.10;99.90;;;;;;5012422;28;20080;-44
2023/11/18 00:50:10;;;;;;;2.80;2.13;;;11.10;99.90;;;;;;5011704;28;20030;-42
2023/11/18 00:52:41;;;;;;;4.65;2.00;;;11.10;99.90;;;;;;5011623;28;20553;-45
2023/11/18 00:55:07;;;;;;;3.30;2.08;;;11.10;99.90;;;;;;5011133;28;20392;-43
2023/11/18 00:57:33;;;;;;;2.70;2.00;;;11.10;99.90;;;;;;5011487;28;20026;-45
2023/11/18 00:59:59;;;;;;;2.38;1.65;;;11.00;99.90;;;;;;5011149;28;20454;-44
2023/11/18 01:02:24;;;;;;;3.00;1.63;;;11.10;99.90;;;;;;5011377;28;20033;-43
2023/11/18 01:04:50;;;;;;;3.60;1.50;;;11.10;99.90;;;;;;5012740;28;20109;-45
2023/11/18 01:07:16;;;;;;;2.67;1.67;;;11.10;99.90;;;;;;5011251;28;20029;-45
2023/11/18 01:09:41;;;;;;;1.85;1.27;;;11.10;99.90;;;;;;5012033;28;20111;-45
2023/11/18 01:12:09;;;;;;;2.47;1.17;;;11.00;99.90;;;;;;5011090;28;20503;-45
2023/11/18 01:14:39;;;;;;;12.00;5.28;;;11.00;99.90;;;;;;5011083;28;20029;-42
2023/11/18 01:17:11;;;;;;;44.17;19.42;;;11.00;99.90;;;;;;5010798;28;20092;-45
2023/11/18 01:19:37;;;;;;;31.85;15.57;;;11.00;99.90;;;;;;5010934;28;20026;-42
2023/11/18 01:22:05;;;;;;;18.80;8.60;;;11.00;99.90;;;;;;5010999;28;20121;-45
2023/11/18 01:24:32;;;;;;;8.18;4.20;;;11.00;99.90;;;;;;5010893;28;20042;-45
2023/11/18 01:26:59;;;;;;;3.42;2.05;;;11.00;99.90;;;;;;5013419;28;20045;-45
2023/11/18 01:29:25;;;;;;;4.70;1.70;;;11.00;99.90;;;;;;5015178;28;20029;-44
2023/11/18 01:31:50;;;;;;;4.68;1.80;;;11.00;99.90;;;;;;5015318;28;20029;-42
2023/11/18 01:34:17;;;;;;;3.50;1.33;;;11.00;99.90;;;;;;5015639;28;20545;-43
2023/11/18 01:36:43;;;;;;;1.83;1.27;;;11.00;99.90;;;;;;5015281;28;20534;-45
2023/11/18 01:39:10;;;;;;;1.90;1.10;;;11.00;99.90;;;;;;5014069;28;20030;-43
2023/11/18 01:41:35;;;;;;;2.15;1.33;;;11.00;99.90;;;;;;5014278;28;20487;-45
2023/11/18 01:44:01;;;;;;;2.33;1.50;;;11.10;99.90;;;;;;5014633;28;20061;-44
2023/11/18 01:46:29;;;;;;;1.73;1.10;;;11.10;99.90;;;;;;5014472;28;20018;-45
2023/11/18 01:48:55;;;;;;;2.35;1.50;;;11.10;99.90;;;;;;5013919;28;20361;-44
2023/11/18 01:51:23;;;;;;;2.58;1.30;;;11.20;99.90;;;;;;5014073;28;20504;-44
2023/11/18 01:53:50;;;;;;;2.00;1.63;;;11.30;99.90;;;;;;5013896;28;20041;-45
2023/11/18 01:56:15;;;;;;;1.92;1.40;;;11.30;99.90;;;;;;5013753;28;20021;-44
2023/11/18 01:58:41;;;;;;;2.40;1.50;;;11.30;99.90;;;;;;5013775;28;20413;-45
2023/11/18 02:01:08;;;;;;;3.33;1.30;;;11.30;99.90;;;;;;5013688;28;20099;-45
2023/11/18 02:03:37;;;;;;;1.63;1.23;;;11.40;99.90;;;;;;5013794;28;20076;-43
2023/11/18 02:06:05;;;;;;;3.45;1.38;;;11.40;99.90;;;;;;5013989;28;20472;-44
2023/11/18 02:08:34;;;;;;;1.80;0.98;;;11.50;99.90;;;;;;5014539;28;20033;-45
2023/11/18 02:11:12;;;;;;;1.58;0.75;;;11.50;99.90;;;;;;5014806;28;20026;-45
2023/11/18 02:13:40;;;;;;;1.05;0.80;;;11.50;99.90;;;;;;5014903;28;20030;-45
2023/11/18 02:16:08;;;;;;;1.30;0.77;;;11.60;99.90;;;;;;5014227;28;20026;-44
2023/11/18 02:18:39;;;;;;;1.30;0.90;;;11.50;99.90;;;;;;5013425;28;20484;-43
2023/11/18 02:21:08;;;;;;;0.98;0.77;;;11.60;99.90;;;;;;5013524;28;20022;-44
2023/11/18 02:23:33;;;;;;;1.73;0.93;;;11.60;99.90;;;;;;5014627;28;20030;-42
2023/11/18 02:26:01;;;;;;;2.45;1.00;;;11.60;99.90;;;;;;5014079;28;20026;-42
2023/11/18 02:28:27;;;;;;;1.13;0.70;;;11.60;99.90;;;;;;5013556;28;20022;-44
2023/11/18 02:31:01;;;;;;;1.63;0.65;;;11.60;99.90;;;;;;5013952;28;20469;-41
2023/11/18 02:33:59;;;;;;;0.70;0.60;;;11.60;99.90;;;;;;5013579;28;20033;-43
2023/11/18 02:36:36;;;;;;;1.52;0.73;;;11.60;99.90;;;;;;5022596;28;20117;-43
2023/11/18 02:39:08;;;;;;;1.45;0.80;;;11.60;99.90;;;;;;5012012;28;20036;-44
2023/11/18 02:41:39;;;;;;;1.00;0.80;;;11.60;99.90;;;;;;5013152;28;20080;-44
2023/11/18 02:44:10;;;;;;;1.13;0.75;;;11.50;99.90;;;;;;5013113;28;20062;-43
2023/11/18 02:46:37;;;;;;;1.35;0.90;;;11.50;99.90;;;;;;5013412;28;20108;-45
2023/11/18 02:49:03;;;;;;;0.95;0.70;;;11.50;99.90;;;;;;5012662;28;20026;-45
2023/11/18 02:51:31;;;;;;;1.17;0.63;;;11.50;99.90;;;;;;5012953;28;20830;-45
2023/11/18 02:53:57;;;;;;;0.50;0.40;;;11.40;99.90;;;;;;5012837;28;20030;-43
2023/11/18 02:56:23;;;;;;;2.10;0.47;;;11.40;99.90;;;;;;5012767;28;20033;-45
2023/11/18 02:58:48;;;;;;;1.98;0.68;;;11.40;99.90;;;;;;5012581;28;20392;-44
2023/11/18 03:01:14;;;;;;;1.38;0.60;;;11.40;99.90;;;;;;5013033;28;20500;-43
2023/11/18 03:03:40;;;;;;;0.80;0.70;;;11.40;99.90;;;;;;5012585;28;20033;-43
2023/11/18 03:06:06;;;;;;;1.15;0.50;;;11.40;99.90;;;;;;5012577;28;20076;-41
2023/11/18 03:08:31;;;;;;;0.68;0.45;;;11.30;99.90;;;;;;5012419;28;20471;-45
2023/11/18 03:10:58;;;;;;;1.75;0.50;;;11.30;99.90;;;;;;5012571;28;20030;-42
2023/11/18 03:13:24;;;;;;;0.80;0.45;;;11.30;99.90;;;;;;5012550;28;20030;-45
2023/11/18 03:15:51;;;;;;;0.82;0.60;;;11.30;99.90;;;;;;5012425;28;20026;-45
2023/11/18 03:18:17;;;;;;;0.73;0.40;;;11.30;99.90;;;;;;5012884;28;20018;-43
2023/11/18 03:20:43;;;;;;;0.75;0.50;;;11.20;99.90;;;;;;5012432;28;20025;-40
2023/11/18 03:23:09;;;;;;;1.17;0.60;;;11.20;99.90;;;;;;5012363;28;20487;-45
2023/11/18 03:25:35;;;;;;;1.45;0.60;;;11.20;99.90;;;;;;5013255;28;20021;-41
2023/11/18 03:28:01;;;;;;;2.35;0.65;;;11.20;99.90;;;;;;5012112;28;20112;-45
2023/11/18 03:30:28;;;;;;;1.08;0.60;;;11.20;99.90;;;;;;5012288;28;20137;-42
2023/11/18 03:32:54;;;;;;;0.70;0.43;;;11.10;99.90;;;;;;5012037;28;20040;-43
2023/11/18 03:35:20;;;;;;;0.80;0.40;;;11.10;99.90;;;;;;5012090;28;20399;-45
2023/11/18 03:37:46;;;;;;;0.80;0.52;;;11.10;99.90;;;;;;5011746;28;20026;-44
2023/11/18 03:40:14;;;;;;;0.77;0.45;;;11.10;99.90;;;;;;5012055;28;20034;-44
2023/11/18 03:42:41;;;;;;;1.75;0.60;;;11.10;99.90;;;;;;5012369;28;20462;-44
2023/11/18 03:45:09;;;;;;;0.60;0.60;;;11.10;99.90;;;;;;5012479;28;20419;-41
2023/11/18 03:47:35;;;;;;;0.88;0.50;;;11.00;99.90;;;;;;5013499;28;20033;-42
2023/11/18 03:50:00;;;;;;;1.70;0.77;;;11.00;99.90;;;;;;5012305;28;20384;-45
2023/11/18 03:52:27;;;;;;;0.70;0.60;;;11.00;99.90;;;;;;5011850;28;20030;-44
2023/11/18 03:54:53;;;;;;;0.80;0.70;;;11.00;99.90;;;;;;5011887;28;20025;-42
2023/11/18 03:57:19;;;;;;;1.15;0.75;;;11.00;99.90;;;;;;5011620;28;20030;-44
2023/11/18 03:59:44;;;;;;;1.02;0.80;;;11.00;99.90;;;;;;5011623;28;20075;-44
2023/11/18 04:02:11;;;;;;;1.30;0.80;;;10.90;99.90;;;;;;5011819;28;20079;-43
2023/11/18 04:04:37;;;;;;;1.00;0.80;;;10.90;99.90;;;;;;5012163;28;20018;-43
2023/11/18 04:07:03;;;;;;;2.80;0.73;;;10.90;99.90;;;;;;5012843;28;20022;-43
2023/11/18 04:09:29;;;;;;;2.35;0.73;;;10.90;99.90;;;;;;5011665;28;20160;-45
2023/11/18 04:11:55;;;;;;;0.98;0.80;;;10.90;99.90;;;;;;5011665;28;20101;-45
2023/11/18 04:14:21;;;;;;;1.42;0.70;;;10.90;99.90;;;;;;5011476;28;20029;-45
2023/11/18 04:16:47;;;;;;;0.80;0.70;;;10.90;99.90;;;;;;5011372;28;20025;-44
2023/11/18 04:19:13;;;;;;;0.68;0.60;;;10.90;99.90;;;;;;5011531;28;20022;-43
2023/11/18 04:21:39;;;;;;;0.80;0.60;;;10.90;99.90;;;;;;5011583;28;20547;-44
2023/11/18 04:24:05;;;;;;;0.90;0.70;;;10.90;99.90;;;;;;5011471;28;20026;-44
2023/11/18 04:26:32;;;;;;;2.03;0.90;;;10.90;99.90;;;;;;5012397;28;20022;-45
2023/11/18 04:28:58;;;;;;;0.80;0.65;;;10.80;99.90;;;;;;5011204;28;20123;-42
2023/11/18 04:31:24;;;;;;;1.23;0.60;;;10.90;99.90;;;;;;5011673;28;20052;-45
2023/11/18 04:33:50;;;;;;;3.55;1.63;;;10.80;99.90;;;;;;5011633;28;20547;-41
2023/11/18 04:36:16;;;;;;;4.30;2.58;;;10.80;99.90;;;;;;5011679;28;20112;-45
2023/11/18 04:38:46;;;;;;;4.20;1.95;;;10.80;99.90;;;;;;5011811;28;20044;-45
2023/11/18 04:41:11;;;;;;;4.32;1.58;;;10.80;99.90;;;;;;5012920;28;20014;-43
2023/11/18 04:43:38;;;;;;;5.63;3.05;;;10.70;99.90;;;;;;5011476;28;20123;-44
2023/11/18 04:46:05;;;;;;;5.55;3.08;;;10.80;99.90;;;;;;5011477;28;20392;-40
2023/11/18 04:48:31;;;;;;;4.20;1.70;;;10.70;99.90;;;;;;5011178;28;20065;-42
2023/11/18 04:50:56;;;;;;;2.28;1.35;;;10.70;99.90;;;;;;5011293;28;20483;-44
2023/11/18 04:53:22;;;;;;;2.30;1.10;;;10.70;99.90;;;;;;5011302;28;20034;-43
2023/11/18 04:55:47;;;;;;;1.98;1.30;;;10.70;99.90;;;;;;5011365;28;20053;-44
2023/11/18 04:58:13;;;;;;;1.55;1.10;;;10.70;99.90;;;;;;5010795;28;20026;-45
2023/11/18 05:00:39;;;;;;;1.63;1.08;;;10.70;99.90;;;;;;5012332;28;20033;-42
2023/11/18 05:03:09;;;;;;;1.10;0.80;;;10.60;99.90;;;;;;5014916;28;20033;-45
2023/11/18 05:05:37;;;;;;;2.17;1.00;;;10.60;99.90;;;;;;5015276;28;20506;-42
2023/11/18 05:08:08;;;;;;;2.28;1.17;;;10.60;99.90;;;;;;5015043;28;20112;-45
2023/11/18 05:10:34;;;;;;;3.10;1.02;;;10.60;99.90;;;;;;5014738;28;20525;-43
2023/11/18 05:13:00;;;;;;;0.70;0.70;;;10.70;99.90;;;;;;5015757;28;20030;-42
2023/11/18 05:15:26;;;;;;;2.88;1.08;;;10.60;99.90;;;;;;5014680;28;20056;-45
2023/11/18 05:17:53;;;;;;;1.70;1.02;;;10.60;99.90;;;;;;5014471;28;20038;-43
2023/11/18 05:20:19;;;;;;;1.20;0.93;;;10.70;99.90;;;;;;5013469;28;20109;-44
2023/11/18 05:22:44;;;;;;;2.63;1.00;;;10.60;99.90;;;;;;5014647;28;20056;-44
2023/11/18 05:25:10;;;;;;;3.72;1.10;;;10.60;99.90;;;;;;5015451;28;20391;-44
2023/11/18 05:27:36;;;;;;;1.27;1.00;;;10.60;99.90;;;;;;5015329;28;20029;-44
2023/11/18 05:30:03;;;;;;;0.98;0.80;;;10.60;99.90;;;;;;5015378;28;20030;-45
2023/11/18 05:32:30;;;;;;;1.42;0.90;;;10.60;99.90;;;;;;5014659;28;20566;-44
2023/11/18 05:34:57;;;;;;;1.15;0.70;;;10.60;99.90;;;;;;5016268;28;20041;-43
2023/11/18 05:37:28;;;;;;;2.53;1.10;;;10.60;99.90;;;;;;5014785;28;20057;-45
2023/11/18 05:39:59;;;;;;;0.80;0.63;;;10.60;99.90;;;;;;5014407;28;20576;-41
2023/11/18 05:42:27;;;;;;;1.15;0.93;;;10.60;99.90;;;;;;5014843;28;20109;-43
2023/11/18 05:44:59;;;;;;;1.13;1.00;;;10.60;99.90;;;;;;5030454;28;20022;-45
2023/11/18 05:47:26;;;;;;;1.38;0.80;;;10.60;99.90;;;;;;5014119;28;20041;-45
2023/11/18 05:49:52;;;;;;;4.22;1.00;;;10.60;99.90;;;;;;5013985;28;20033;-44
2023/11/18 05:52:20;;;;;;;1.65;1.10;;;10.60;99.90;;;;;;5014433;28;20034;-43
2023/11/18 05:54:47;;;;;;;6.85;2.17;;;10.60;99.90;;;;;;5014026;28;20088;-44
2023/11/18 05:57:13;;;;;;;6.55;3.03;;;10.60;99.90;;;;;;5013770;28;20522;-43
2023/11/18 05:59:39;;;;;;;5.00;1.92;;;10.60;99.90;;;;;;5013783;28;20033;-44
2023/11/18 06:02:04;;;;;;;6.40;1.90;;;10.60;99.90;;;;;;5013902;28;20022;-44
2023/11/18 06:04:30;;;;;;;5.40;1.73;;;10.60;99.90;;;;;;5013735;28;20033;-44
2023/11/18 06:06:56;;;;;;;4.57;1.80;;;10.60;99.90;;;;;;5014009;28;20084;-43
2023/11/18 06:09:25;;;;;;;4.78;1.38;;;10.50;99.90;;;;;;5013668;28;20034;-45
2023/11/18 06:11:53;;;;;;;2.88;1.52;;;10.50;99.90;;;;;;5014250;28;20032;-45
2023/11/18 06:14:19;;;;;;;1.73;1.45;;;10.50;99.90;;;;;;5013676;28;20036;-45
2023/11/18 06:16:45;;;;;;;2.80;1.50;;;10.50;99.90;;;;;;5013414;28;20042;-45
2023/11/18 06:19:10;;;;;;;1.90;1.50;;;10.50;99.90;;;;;;5013822;28;20069;-45
2023/11/18 06:21:36;;;;;;;1.95;1.60;;;10.50;99.90;;;;;;5014217;28;20026;-43
2023/11/18 06:24:05;;;;;;;7.03;1.77;;;10.50;99.90;;;;;;5013620;28;20467;-44
2023/11/18 06:26:31;;;;;;;2.17;1.50;;;10.50;99.90;;;;;;5013658;28;20022;-44
2023/11/18 06:28:56;;;;;;;1.52;1.40;;;10.50;99.90;;;;;;5013322;28;20455;-44
2023/11/18 06:31:24;;;;;;;1.77;1.67;;;10.50;99.90;;;;;;5014053;28;20033;-42
2023/11/18 06:33:50;;;;;;;3.03;1.98;;;10.50;99.90;;;;;;5013249;28;20022;-44
2023/11/18 06:36:21;;;;;;;5.88;1.60;;;10.60;99.90;;;;;;5044858;28;20026;-45
2023/11/18 06:38:49;;;;;;;2.50;1.70;;;10.60;99.90;;;;;;5013051;28;20044;-45
2023/11/18 06:41:16;;;;;;;1.90;1.75;;;10.60;99.90;;;;;;5013118;28;20021;-44
2023/11/18 06:43:56;;;;;;;3.05;2.08;;;10.60;99.90;;;;;;5013072;28;20116;-41
2023/11/18 06:46:25;;;;;;;2.17;1.52;;;10.70;99.90;;;;;;5013204;28;20022;-45
2023/11/18 06:48:54;;;;;;;2.55;1.30;;;10.70;99.90;;;;;;5012731;28;20064;-45
2023/11/18 06:51:24;;;;;;;2.75;1.45;;;10.70;99.90;;;;;;5013188;28;20022;-41
2023/11/18 06:53:50;;;;;;;2.13;1.52;;;10.80;99.90;;;;;;5012948;28;20022;-45
2023/11/18 06:56:16;;;;;;;2.42;1.67;;;10.80;99.90;;;;;;5012812;28;20026;-44
2023/11/18 06:58:42;;;;;;;2.45;1.67;;;10.80;99.90;;;;;;5013196;28;20415;-41
2023/11/18 07:01:09;;;;;;;2.60;1.70;;;10.90;99.90;;;;;;5013206;28;20028;-44
2023/11/18 07:03:36;;;;;;;1.63;1.40;;;10.90;99.90;;;;;;5014023;28;20076;-44
2023/11/18 07:06:02;;;;;;;2.13;1.58;;;11.00;99.90;;;;;;5012670;28;20535;-45
2023/11/18 07:08:28;;;;;;;2.63;1.65;;;11.00;99.90;;;;;;5012479;28;20026;-45
2023/11/18 07:10:54;;;;;;;1.98;1.33;;;11.10;99.90;;;;;;5012634;28;20439;-45
2023/11/18 07:13:23;;;;;;;1.75;1.60;;;11.10;99.90;;;;;;5012657;28;20040;-45
2023/11/18 07:15:50;;;;;;;2.50;1.60;;;11.10;99.90;;;;;;5012373;28;20096;-45
2023/11/18 07:18:16;;;;;;;1.83;1.50;;;11.20;99.90;;;;;;5012214;28;20491;-45
2023/11/18 07:20:42;;;;;;;2.45;1.40;;;11.30;99.90;;;;;;5012445;28;20025;-45
2023/11/18 07:23:08;;;;;;;1.63;1.40;;;11.30;99.90;;;;;;5012515;28;20018;-45
2023/11/18 07:25:34;;;;;;;1.95;1.40;;;11.40;99.90;;;;;;5011707;28;20022;-44
2023/11/18 07:28:00;;;;;;;1.90;1.70;;;11.40;99.90;;;;;;5012077;28;20029;-44
2023/11/18 07:30:26;;;;;;;1.33;1.23;;;11.50;99.90;;;;;;5012243;28;20447;-44
2023/11/18 07:32:52;;;;;;;1.90;1.40;;;11.60;99.90;;;;;;5012196;28;20061;-44
2023/11/18 07:35:17;;;;;;;2.25;1.48;;;11.60;99.90;;;;;;5012291;28;20455;-44
2023/11/18 07:37:43;;;;;;;1.80;1.35;;;11.70;99.90;;;;;;5011854;28;20029;-44
2023/11/18 07:40:11;;;;;;;2.30;1.40;;;11.70;99.90;;;;;;5012174;28;20033;-43
2023/11/18 07:42:37;;;;;;;2.72;1.40;;;11.80;99.90;;;;;;5011990;28;20026;-41
2023/11/18 07:45:04;;;;;;;2.40;1.45;;;11.80;99.90;;;;;;5012470;28;20030;-45
2023/11/18 07:47:34;;;;;;;2.42;1.63;;;11.90;99.90;;;;;;5012095;28;20022;-43
2023/11/18 07:50:00;;;;;;;1.58;1.08;;;11.90;99.90;;;;;;5011972;28;20034;-40
2023/11/18 07:52:27;;;;;;;2.35;1.15;;;11.90;99.90;;;;;;5012279;28;20033;-45
2023/11/18 07:54:54;;;;;;;1.73;1.40;;;12.00;99.90;;;;;;5012318;28;20022;-42
2023/11/18 07:57:19;;;;;;;2.42;1.70;;;12.00;99.90;;;;;;5012382;28;20438;-43
2023/11/18 07:59:45;;;;;;;1.70;1.45;;;12.00;99.90;;;;;;5013208;28;20101;-42
2023/11/18 08:02:10;;;;;;;2.92;2.00;;;12.10;99.90;;;;;;5012465;28;20105;-45
2023/11/18 08:04:36;;;;;;;4.55;2.60;;;12.20;99.90;;;;;;5011693;28;20492;-44
2023/11/18 08:07:04;;;;;;;4.13;2.45;;;12.20;99.90;;;;;;5011884;28;20068;-44
2023/11/18 08:09:31;;;;;;;3.55;2.33;;;12.20;99.90;;;;;;5011837;28;20438;-42
2023/11/18 08:11:58;;;;;;;3.63;2.10;;;12.30;99.90;;;;;;5012052;28;20055;-44
2023/11/18 08:14:24;;;;;;;2.92;1.77;;;12.30;99.90;;;;;;5011634;28;20104;-43
2023/11/18 08:16:51;;;;;;;2.85;1.70;;;12.30;99.90;;;;;;5011423;28;20680;-44
2023/11/18 08:19:17;;;;;;;3.88;1.63;;;12.40;99.90;;;;;;5011484;28;20017;-45
2023/11/18 08:21:43;;;;;;;3.83;1.50;;;12.40;99.90;;;;;;5011577;28;20029;-43
2023/11/18 08:24:08;;;;;;;2.28;1.50;;;12.50;99.90;;;;;;5011491;28;20022;-44
2023/11/18 08:26:37;;;;;;;3.55;1.77;;;12.50;99.90;;;;;;5011869;28;20053;-43
2023/11/18 08:29:02;;;;;;;2.78;1.70;;;12.50;99.90;;;;;;5011338;28;20010;-44
2023/11/18 08:31:28;;;;;;;2.42;1.65;;;12.60;99.90;;;;;;5011494;28;20456;-45
2023/11/18 08:33:54;;;;;;;3.05;1.33;;;12.60;99.90;;;;;;5011796;28;20427;-44
2023/11/18 08:36:22;;;;;;;2.13;1.50;;;12.70;99.90;;;;;;5014873;28;20014;-45
2023/11/18 08:38:49;;;;;;;3.25;1.60;;;12.70;99.90;;;;;;5015470;28;20022;-45
2023/11/18 08:41:15;;;;;;;2.63;1.77;;;12.70;99.90;;;;;;5016782;28;20527;-44
2023/11/18 08:43:41;;;;;;;2.30;1.60;;;12.80;99.90;;;;;;5015378;28;20114;-44
2023/11/18 08:46:07;;;;;;;5.25;1.65;;;12.80;99.90;;;;;;5015447;28;20025;-42
2023/11/18 08:48:37;;;;;;;2.28;1.20;;;12.80;99.90;;;;;;5015128;28;20107;-45
2023/11/18 08:51:05;;;;;;;1.73;1.48;;;12.90;99.80;;;;;;5015720;28;20030;-44
2023/11/18 08:53:40;;;;;;;1.95;1.38;;;13.00;99.80;;;;;;5015536;28;20034;-45
2023/11/18 08:56:15;;;;;;;3.63;1.50;;;13.00;99.70;;;;;;5016376;28;20092;-44
2023/11/18 08:58:44;;;;;;;3.05;1.80;;;13.10;99.70;;;;;;5015875;28;20400;-45
2023/11/18 09:01:19;;;;;;;2.92;1.40;;;13.10;99.70;;;;;;5015683;28;20025;-45
2023/11/18 09:03:52;;;;;;;5.45;1.70;;;13.20;99.60;;;;;;5015716;28;20026;-44
2023/11/18 09:06:17;;;;;;;3.75;1.50;;;13.20;99.50;;;;;;5016204;28;20025;-43
2023/11/18 09:08:52;;;;;;;3.03;1.70;;;13.30;99.50;;;;;;5015532;28;20105;-44
2023/11/18 09:11:19;;;;;;;2.20;1.73;;;13.30;99.50;;;;;;5015890;28;20386;-44
2023/11/18 09:13:49;;;;;;;4.63;1.67;;;13.40;99.50;;;;;;5015462;28;20377;-42
2023/11/18 09:16:15;;;;;;;1.80;1.42;;;13.40;99.40;;;;;;5014703;28;20030;-44
2023/11/18 09:18:44;;;;;;;3.67;1.63;;;13.40;99.40;;;;;;5014337;28;20050;-45
2023/11/18 09:21:14;;;;;;;5.30;2.00;;;13.50;99.40;;;;;;4995340;28;20018;-45
2023/11/18 09:23:41;;;;;;;2.72;1.80;;;13.50;99.40;;;;;;5031857;28;20068;-44
2023/11/18 09:26:10;;;;;;;2.15;1.52;;;13.50;99.40;;;;;;5044262;28;20029;-44
2023/11/18 09:28:36;;;;;;;4.35;1.58;;;13.50;99.30;;;;;;5034034;28;20022;-45
2023/11/18 09:31:03;;;;;;;1.85;1.20;;;13.60;99.30;;;;;;5034055;28;20022;-44
2023/11/18 09:33:35;;;;;;;3.40;1.60;;;13.60;99.30;;;;;;5034029;28;20495;-45
2023/11/18 09:36:07;;;;;;;2.15;1.13;;;13.60;99.30;;;;;;5035207;28;20599;-45
2023/11/18 09:38:37;;;;;;;1.92;1.30;;;13.70;99.20;;;;;;5034519;28;20395;-45
2023/11/18 09:41:07;;;;;;;2.33;1.45;;;13.70;99.20;;;;;;5034576;28;20533;-44
2023/11/18 09:43:47;;;;;;;2.03;1.42;;;13.80;99.10;;;;;;5033785;28;20561;-43
2023/11/18 09:46:14;;;;;;;2.05;1.25;;;13.80;99.10;;;;;;5034434;28;20121;-42
2023/11/18 09:49:14;;;;;;;2.38;1.50;;;13.80;99.10;;;;;;5033391;28;20109;-44
2023/11/18 09:51:44;;;;;;;2.00;1.38;;;13.80;99.10;;;;;;5033908;28;20577;-45
2023/11/18 09:54:33;;;;;;;2.50;1.20;;;13.90;99.10;;;;;;5033728;28;20026;-44
2023/11/18 09:57:19;;;;;;;3.17;1.30;;;13.90;99.00;;;;;;5034461;28;20399;-45
2023/11/18 10:00:21;;;;;;;2.50;1.27;;;13.90;99.00;;;;;;5034642;28;20029;-45
2023/11/18 10:02:50;;;;;;;3.10;1.40;;;14.00;99.10;;;;;;5033620;28;20530;-43
2023/11/18 10:05:20;;;;;;;5.40;1.08;;;14.00;99.20;;;;;;5033988;28;20028;-45
2023/11/18 10:07:47;;;;;;;1.98;1.20;;;14.10;99.20;;;;;;5034471;28;20017;-42
2023/11/18 10:10:16;;;;;;;1.65;1.20;;;14.10;99.10;;;;;;5034866;28;20025;-44
2023/11/18 10:12:51;;;;;;;6.10;1.33;;;14.10;99.10;;;;;;5034855;28;20056;-43
2023/11/18 10:15:18;;;;;;;2.08;1.10;;;14.20;99.10;;;;;;5034458;28;20021;-44
2023/11/18 10:18:06;;;;;;;2.63;1.13;;;14.30;99.10;;;;;;5033887;28;20111;-45
2023/11/18 10:20:47;;;;;;;2.25;1.20;;;14.30;99.00;;;;;;5034203;28;20479;-45
2023/11/18 10:23:20;;;;;;;2.42;1.00;;;14.40;99.00;;;;;;5033556;28;20025;-45
2023/11/18 10:25:52;;;;;;;3.05;1.20;;;14.40;98.90;;;;;;5034360;28;20018;-45
2023/11/18 10:28:27;;;;;;;1.90;1.02;;;14.50;98.90;;;;;;5033764;28;20067;-45
2023/11/18 10:31:03;;;;;;;1.30;0.90;;;14.60;98.80;;;;;;5034147;28;20025;-44
2023/11/18 10:33:37;;;;;;;3.35;1.30;;;14.60;98.80;;;;;;5033519;28;20104;-45
2023/11/18 10:36:03;;;;;;;1.67;1.00;;;14.70;98.70;;;;;;5033334;28;20429;-45
2023/11/18 10:38:30;;;;;;;2.85;1.20;;;14.70;99.00;;;;;;5032823;28;20636;-45
2023/11/18 10:40:57;;;;;;;4.03;1.08;;;14.80;98.60;;;;;;5032963;28;20052;-44
2023/11/18 10:43:28;;;;;;;6.15;1.17;;;14.80;98.40;;;;;;5034150;28;20197;-45
2023/11/18 10:46:14;;;;;;;2.75;1.00;;;14.90;98.30;;;;;;5033222;28;20100;-45
2023/11/18 10:48:43;;;;;;;4.78;0.95;;;14.90;98.30;;;;;;5033425;28;20053;-45
2023/11/18 10:51:13;;;;;;;2.40;0.82;;;14.90;98.30;;;;;;5033782;28;20024;-45
2023/11/18 10:53:53;;;;;;;3.53;0.98;;;15.00;98.30;;;;;;5033847;28;20538;-45
2023/11/18 10:56:24;;;;;;;2.55;1.02;;;15.00;98.30;;;;;;5033791;28;20026;-44
2023/11/18 10:58:50;;;;;;;3.53;1.30;;;15.00;98.20;;;;;;5031852;28;20104;-42
2023/11/18 11:01:27;;;;;;;2.20;1.00;;;15.10;98.20;;;;;;5034082;28;20049;-43
2023/11/18 11:03:56;;;;;;;2.40;0.85;;;15.10;98.10;;;;;;5033741;28;20032;-42
2023/11/18 11:06:24;;;;;;;2.25;1.05;;;15.10;98.10;;;;;;5032571;28;20022;-45
2023/11/18 11:08:53;;;;;;;2.10;0.90;;;15.20;98.10;;;;;;5032243;28;20343;-45
2023/11/18 11:11:21;;;;;;;3.13;0.80;;;15.20;98.00;;;;;;5032398;28;20048;-45
2023/11/18 11:13:50;;;;;;;2.88;0.90;;;15.20;98.30;;;;;;5032583;28;20021;-44
2023/11/18 11:16:19;;;;;;;2.05;1.20;;;15.30;98.00;;;;;;5032546;28;20021;-45
2023/11/18 11:18:53;;;;;;;1.23;0.80;;;15.30;97.90;;;;;;5033262;28;20049;-45
2023/11/18 11:21:28;;;;;;;2.35;1.05;;;15.30;97.90;;;;;;5032821;28;20109;-45
2023/11/18 11:24:00;;;;;;;3.30;1.10;;;15.30;97.90;;;;;;5033401;28;20037;-45
2023/11/18 11:27:10;;;;;;;1.42;0.65;;;15.30;97.90;;;;;;5033047;28;20018;-45
2023/11/18 11:29:38;;;;;;;3.63;0.80;;;15.30;97.80;;;;;;5033359;28;20025;-45
2023/11/18 11:32:18;;;;;;;2.05;0.88;;;15.30;97.80;;;;;;5031914;28;20033;-45
2023/11/18 11:34:56;;;;;;;3.00;0.90;;;15.40;97.80;;;;;;5031973;28;20025;-45
2023/11/18 11:37:25;;;;;;;2.35;0.77;;;15.40;97.80;;;;;;5033481;28;20018;-45
2023/11/18 11:39:53;;;;;;;2.70;0.80;;;15.40;97.70;;;;;;5032288;28;20099;-44
2023/11/18 11:42:21;;;;;;;1.92;0.90;;;15.40;97.70;;;;;;5032948;28;20025;-44
2023/11/18 11:44:49;;;;;;;2.58;0.90;;;15.40;97.70;;;;;;5032761;28;20609;-44
2023/11/18 11:47:15;;;;;;;3.35;0.73;;;15.40;97.70;;;;;;5032294;28;20034;-42
2023/11/18 11:49:52;;;;;;;2.10;0.90;;;15.40;97.70;;;;;;5031977;28;20033;-45
2023/11/18 11:52:37;;;;;;;1.92;0.90;;;15.40;97.70;;;;;;5032656;28;20113;-45
2023/11/18 11:55:37;;;;;;;2.33;0.90;;;15.40;97.60;;;;;;5031805;28;20025;-45
2023/11/18 11:58:06;;;;;;;1.73;0.90;;;15.40;97.60;;;;;;5063765;28;20025;-45
2023/11/18 12:00:35;;;;;;;1.85;0.80;;;15.40;97.60;;;;;;5032290;28;20022;-44
2023/11/18 12:03:04;;;;;;;2.15;0.93;;;15.50;97.60;;;;;;5032348;28;20483;-45
2023/11/18 12:05:33;;;;;;;1.00;0.63;;;15.50;97.60;;;;;;5032090;28;20076;-45
2023/11/18 12:07:59;;;;;;;2.25;0.82;;;15.50;97.60;;;;;;5031629;28;20029;-45
2023/11/18 12:10:30;;;;;;;1.40;0.73;;;15.50;97.60;;;;;;5032406;28;20391;-44
2023/11/18 12:13:16;;;;;;;3.17;0.90;;;15.50;97.60;;;;;;5032044;28;20100;-45
2023/11/18 12:16:04;;;;;;;1.85;0.80;;;15.50;97.50;;;;;;5031940;28;20021;-45
2023/11/18 12:18:33;;;;;;;1.17;0.70;;;15.50;97.90;;;;;;5032463;28;20364;-43
2023/11/18 12:21:03;;;;;;;2.42;0.80;;;15.50;97.50;;;;;;5033180;28;20024;-45
2023/11/18 12:23:30;;;;;;;1.13;0.70;;;15.50;97.50;;;;;;5031765;28;20368;-44
2023/11/18 12:25:57;;;;;;;4.00;1.10;;;15.50;97.50;;;;;;5028752;28;20025;-43
2023/11/18 12:28:45;;;;;;;2.35;0.95;;;15.50;97.50;;;;;;5030713;28;20111;-44
2023/11/18 12:31:16;;;;;;;2.08;1.20;;;15.50;97.40;;;;;;5031306;28;20032;-46
2023/11/18 12:34:03;;;;;;;2.05;0.90;;;15.50;97.40;;;;;;5031245;28;20075;-44
2023/11/18 12:36:38;;;;;;;3.13;1.13;;;15.50;97.40;;;;;;5031019;28;20036;-44
2023/11/18 12:39:33;;;;;;;3.10;0.80;;;15.50;97.50;;;;;;5030976;28;20478;-44
2023/11/18 12:42:11;;;;;;;2.20;1.00;;;15.50;97.40;;;;;;5031275;28;20027;-46
2023/11/18 12:44:58;;;;;;;1.45;0.80;;;15.60;97.50;;;;;;5031110;28;20029;-44
2023/11/18 12:47:28;;;;;;;1.45;0.90;;;15.50;97.50;;;;;;5032134;28;20025;-44
2023/11/18 12:49:56;;;;;;;1.15;0.80;;;15.60;97.50;;;;;;5032492;28;20026;-46
2023/11/18 12:52:23;;;;;;;1.63;0.90;;;15.60;97.50;;;;;;5031062;28;20087;-44
2023/11/18 12:54:56;;;;;;;1.48;0.98;;;15.60;97.50;;;;;;5031689;28;20072;-45